Airport View

Enter AWOS ICAO identifier for current METAR.

ex. KFNL

KMVN 251856Z AUTO 20010KT 10SM FEW021 SCT047 OVC060 26/23 A2992 RMK AO2 RAB03E19 SLP128 P0000 T02610228

25 Sep 2018 19:26

Frequency: 113.8

Phone: 618-242-7933

Other Area AWOS: KENL - KSLO - KFWC - KFOA

TAF AMD KBLV 251725Z 2517/2622 22010G15KT 9000 -SHRA BKN015 OVC025 QNH2985INS TEMPO 2518/2521 22015G25KT 6000 -TSRA BKN015CB OVC025 BECMG 2609/2610 33009KT 9999 NSW OVC015 QNH2982INS BECMG 2614/2615 34010G15KT 9999 FEW020 QNH3013INS TX28/2520Z TN13/2612Z